sensor_id;sensor_type;location;lat;lon;timestamp;temperature;humidity
75838;SHT30;64480;52.040;113.502;2024-01-27T00:02:38;-22.32;62.06
75838;SHT30;64480;52.040;113.502;2024-01-27T00:05:42;-22.35;61.96
75838;SHT30;64480;52.040;113.502;2024-01-27T00:08:46;-22.32;62.26
75838;SHT30;64480;52.040;113.502;2024-01-27T00:11:49;-22.29;62.41
75838;SHT30;64480;52.040;113.502;2024-01-27T00:14:53;-22.25;62.56
75838;SHT30;64480;52.040;113.502;2024-01-27T00:17:56;-22.24;62.68
75838;SHT30;64480;52.040;113.502;2024-01-27T00:20:59;-22.14;62.74
75838;SHT30;64480;52.040;113.502;2024-01-27T00:24:03;-22.05;62.60
75838;SHT30;64480;52.040;113.502;2024-01-27T00:27:07;-21.93;62.51
75838;SHT30;64480;52.040;113.502;2024-01-27T00:30:13;-21.77;62.21
75838;SHT30;64480;52.040;113.502;2024-01-27T00:33:16;-21.76;61.51
75838;SHT30;64480;52.040;113.502;2024-01-27T00:36:23;-21.86;60.72
75838;SHT30;64480;52.040;113.502;2024-01-27T00:39:26;-22.05;60.07
75838;SHT30;64480;52.040;113.502;2024-01-27T00:42:30;-22.15;59.80
75838;SHT30;64480;52.040;113.502;2024-01-27T00:45:33;-22.20;59.57
75838;SHT30;64480;52.040;113.502;2024-01-27T00:48:37;-22.01;59.98
75838;SHT30;64480;52.040;113.502;2024-01-27T00:51:40;-21.93;59.67
75838;SHT30;64480;52.040;113.502;2024-01-27T00:54:43;-21.84;59.51
75838;SHT30;64480;52.040;113.502;2024-01-27T00:57:47;-21.74;59.37
75838;SHT30;64480;52.040;113.502;2024-01-27T01:00:50;-21.67;59.37
75838;SHT30;64480;52.040;113.502;2024-01-27T01:03:57;-21.48;59.46
75838;SHT30;64480;52.040;113.502;2024-01-27T01:07:01;-21.30;59.21
75838;SHT30;64480;52.040;113.502;2024-01-27T01:10:05;-21.23;58.85
75838;SHT30;64480;52.040;113.502;2024-01-27T01:13:10;-21.13;58.59
75838;SHT30;64480;52.040;113.502;2024-01-27T01:16:16;-21.23;58.16
75838;SHT30;64480;52.040;113.502;2024-01-27T01:19:22;-21.32;58.18
75838;SHT30;64480;52.040;113.502;2024-01-27T01:22:26;-21.39;58.27
75838;SHT30;64480;52.040;113.502;2024-01-27T01:25:29;-21.55;57.99
75838;SHT30;64480;52.040;113.502;2024-01-27T01:28:34;-21.63;58.64
75838;SHT30;64480;52.040;113.502;2024-01-27T01:31:37;-21.56;58.63
75838;SHT30;64480;52.040;113.502;2024-01-27T01:34:41;-21.52;58.59
75838;SHT30;64480;52.040;113.502;2024-01-27T01:37:45;-21.45;58.63
75838;SHT30;64480;52.040;113.502;2024-01-27T01:40:51;-21.31;58.35
75838;SHT30;64480;52.040;113.502;2024-01-27T01:43:54;-21.03;58.73
75838;SHT30;64480;52.040;113.502;2024-01-27T01:46:58;-20.80;58.69
75838;SHT30;64480;52.040;113.502;2024-01-27T01:50:01;-20.55;58.27
75838;SHT30;64480;52.040;113.502;2024-01-27T01:53:05;-20.40;57.34
75838;SHT30;64480;52.040;113.502;2024-01-27T01:56:09;-20.29;56.61
75838;SHT30;64480;52.040;113.502;2024-01-27T01:59:16;-20.21;56.19
75838;SHT30;64480;52.040;113.502;2024-01-27T02:02:18;-20.20;56.20
75838;SHT30;64480;52.040;113.502;2024-01-27T02:05:21;-20.17;56.59
75838;SHT30;64480;52.040;113.502;2024-01-27T02:08:25;-20.19;56.72
75838;SHT30;64480;52.040;113.502;2024-01-27T02:11:28;-19.99;57.05
75838;SHT30;64480;52.040;113.502;2024-01-27T02:14:31;-19.64;56.81
75838;SHT30;64480;52.040;113.502;2024-01-27T02:17:42;-19.43;55.88
75838;SHT30;64480;52.040;113.502;2024-01-27T02:20:45;-19.19;55.52
75838;SHT30;64480;52.040;113.502;2024-01-27T02:23:49;-19.08;54.54
75838;SHT30;64480;52.040;113.502;2024-01-27T02:26:52;-18.85;54.59
75838;SHT30;64480;52.040;113.502;2024-01-27T02:29:55;-18.61;54.07
75838;SHT30;64480;52.040;113.502;2024-01-27T02:33:00;-18.33;54.13
75838;SHT30;64480;52.040;113.502;2024-01-27T02:36:04;-18.12;53.38
75838;SHT30;64480;52.040;113.502;2024-01-27T02:39:07;-17.91;52.46
75838;SHT30;64480;52.040;113.502;2024-01-27T02:42:10;-17.73;52.16
75838;SHT30;64480;52.040;113.502;2024-01-27T02:45:18;-17.60;51.83
75838;SHT30;64480;52.040;113.502;2024-01-27T02:48:21;-17.50;51.89
75838;SHT30;64480;52.040;113.502;2024-01-27T02:51:24;-17.46;51.60
75838;SHT30;64480;52.040;113.502;2024-01-27T02:54:28;-17.30;51.72
75838;SHT30;64480;52.040;113.502;2024-01-27T02:57:31;-17.06;51.60
75838;SHT30;64480;52.040;113.502;2024-01-27T03:00:35;-16.94;51.55
75838;SHT30;64480;52.040;113.502;2024-01-27T03:03:41;-16.60;51.58
75838;SHT30;64480;52.040;113.502;2024-01-27T03:06:45;-16.24;51.52
75838;SHT30;64480;52.040;113.502;2024-01-27T03:09:49;-16.14;50.46
75838;SHT30;64480;52.040;113.502;2024-01-27T03:12:53;-15.87;50.43
75838;SHT30;64480;52.040;113.502;2024-01-27T03:15:58;-15.53;49.62
75838;SHT30;64480;52.040;113.502;2024-01-27T03:19:02;-15.40;49.07
75838;SHT30;64480;52.040;113.502;2024-01-27T03:22:07;-15.24;49.09
75838;SHT30;64480;52.040;113.502;2024-01-27T03:25:10;-15.00;48.66
75838;SHT30;64480;52.040;113.502;2024-01-27T03:28:19;-14.67;48.38
75838;SHT30;64480;52.040;113.502;2024-01-27T03:31:23;-14.54;47.83
75838;SHT30;64480;52.040;113.502;2024-01-27T03:34:26;-14.50;47.91
75838;SHT30;64480;52.040;113.502;2024-01-27T03:37:31;-14.59;48.19
75838;SHT30;64480;52.040;113.502;2024-01-27T03:40:36;-14.49;48.31
75838;SHT30;64480;52.040;113.502;2024-01-27T03:43:39;-14.51;48.23
75838;SHT30;64480;52.040;113.502;2024-01-27T03:46:43;-14.42;48.75
75838;SHT30;64480;52.040;113.502;2024-01-27T03:49:46;-14.22;49.08
75838;SHT30;64480;52.040;113.502;2024-01-27T03:52:57;-14.06;49.39
75838;SHT30;64480;52.040;113.502;2024-01-27T03:56:02;-13.91;49.44
75838;SHT30;64480;52.040;113.502;2024-01-27T03:59:07;-13.87;49.47
75838;SHT30;64480;52.040;113.502;2024-01-27T04:02:15;-13.78;49.58
75838;SHT30;64480;52.040;113.502;2024-01-27T04:05:24;-13.59;50.02
75838;SHT30;64480;52.040;113.502;2024-01-27T04:08:32;-13.57;49.61
75838;SHT30;64480;52.040;113.502;2024-01-27T04:11:36;-13.70;50.03
75838;SHT30;64480;52.040;113.502;2024-01-27T04:14:39;-13.73;50.58
75838;SHT30;64480;52.040;113.502;2024-01-27T04:17:43;-13.82;51.39
75838;SHT30;64480;52.040;113.502;2024-01-27T04:20:47;-13.89;51.27
75838;SHT30;64480;52.040;113.502;2024-01-27T04:23:51;-13.89;51.62
75838;SHT30;64480;52.040;113.502;2024-01-27T04:26:55;-13.87;51.58
75838;SHT30;64480;52.040;113.502;2024-01-27T04:29:59;-13.84;51.25
75838;SHT30;64480;52.040;113.502;2024-01-27T04:33:03;-13.73;51.74
75838;SHT30;64480;52.040;113.502;2024-01-27T04:36:06;-13.61;51.50
75838;SHT30;64480;52.040;113.502;2024-01-27T04:39:12;-13.44;51.44
75838;SHT30;64480;52.040;113.502;2024-01-27T04:42:18;-13.21;50.80
75838;SHT30;64480;52.040;113.502;2024-01-27T04:45:22;-13.21;50.42
75838;SHT30;64480;52.040;113.502;2024-01-27T04:48:27;-13.40;50.70
75838;SHT30;64480;52.040;113.502;2024-01-27T04:51:30;-13.49;51.52
75838;SHT30;64480;52.040;113.502;2024-01-27T04:54:34;-13.32;52.17
75838;SHT30;64480;52.040;113.502;2024-01-27T04:57:38;-13.26;51.97
75838;SHT30;64480;52.040;113.502;2024-01-27T05:00:41;-13.12;51.64
75838;SHT30;64480;52.040;113.502;2024-01-27T05:03:45;-12.98;51.44
75838;SHT30;64480;52.040;113.502;2024-01-27T05:06:50;-12.91;50.74
75838;SHT30;64480;52.040;113.502;2024-01-27T05:09:54;-12.81;50.79
75838;SHT30;64480;52.040;113.502;2024-01-27T05:12:58;-12.67;50.48
75838;SHT30;64480;52.040;113.502;2024-01-27T05:16:02;-12.56;50.19
75838;SHT30;64480;52.040;113.502;2024-01-27T05:19:05;-12.42;49.95
75838;SHT30;64480;52.040;113.502;2024-01-27T05:22:09;-12.31;49.80
75838;SHT30;64480;52.040;113.502;2024-01-27T05:25:16;-12.11;49.61
75838;SHT30;64480;52.040;113.502;2024-01-27T05:28:19;-11.82;49.32
75838;SHT30;64480;52.040;113.502;2024-01-27T05:31:26;-11.65;48.84
75838;SHT30;64480;52.040;113.502;2024-01-27T05:34:31;-11.51;48.99
75838;SHT30;64480;52.040;113.502;2024-01-27T05:37:35;-11.45;48.51
75838;SHT30;64480;52.040;113.502;2024-01-27T05:40:39;-11.36;48.00
75838;SHT30;64480;52.040;113.502;2024-01-27T05:43:43;-11.32;48.31
75838;SHT30;64480;52.040;113.502;2024-01-27T05:46:47;-11.21;48.47
75838;SHT30;64480;52.040;113.502;2024-01-27T05:49:51;-11.01;48.63
75838;SHT30;64480;52.040;113.502;2024-01-27T05:52:55;-10.99;48.34
75838;SHT30;64480;52.040;113.502;2024-01-27T05:56:00;-10.93;49.13
75838;SHT30;64480;52.040;113.502;2024-01-27T05:59:07;-11.03;49.16
75838;SHT30;64480;52.040;113.502;2024-01-27T06:02:11;-11.00;48.98
75838;SHT30;64480;52.040;113.502;2024-01-27T06:05:18;-11.14;49.22
75838;SHT30;64480;52.040;113.502;2024-01-27T06:08:23;-11.06;49.69
75838;SHT30;64480;52.040;113.502;2024-01-27T06:11:27;-10.90;49.35
75838;SHT30;64480;52.040;113.502;2024-01-27T06:14:32;-10.76;49.52
75838;SHT30;64480;52.040;113.502;2024-01-27T06:17:42;-10.58;48.68
75838;SHT30;64480;52.040;113.502;2024-01-27T06:20:47;-10.35;48.44
75838;SHT30;64480;52.040;113.502;2024-01-27T06:23:52;-10.25;49.48
75838;SHT30;64480;52.040;113.502;2024-01-27T06:27:00;-10.35;47.71
75838;SHT30;64480;52.040;113.502;2024-01-27T06:30:05;-10.41;48.53
75838;SHT30;64480;52.040;113.502;2024-01-27T06:33:10;-10.46;48.82
75838;SHT30;64480;52.040;113.502;2024-01-27T06:36:21;-10.37;49.05
75838;SHT30;64480;52.040;113.502;2024-01-27T06:39:28;-9.99;48.62
75838;SHT30;64480;52.040;113.502;2024-01-27T06:42:33;-9.88;48.02
75838;SHT30;64480;52.040;113.502;2024-01-27T06:45:38;-9.78;47.75
75838;SHT30;64480;52.040;113.502;2024-01-27T06:48:44;-9.65;47.99
75838;SHT30;64480;52.040;113.502;2024-01-27T06:51:49;-9.68;47.37
75838;SHT30;64480;52.040;113.502;2024-01-27T06:54:53;-9.63;47.29
75838;SHT30;64480;52.040;113.502;2024-01-27T06:57:58;-9.68;47.83
75838;SHT30;64480;52.040;113.502;2024-01-27T07:01:03;-9.50;48.03
75838;SHT30;64480;52.040;113.502;2024-01-27T07:04:07;-9.34;47.30
75838;SHT30;64480;52.040;113.502;2024-01-27T07:07:11;-9.24;47.40
75838;SHT30;64480;52.040;113.502;2024-01-27T07:10:16;-9.16;46.72
75838;SHT30;64480;52.040;113.502;2024-01-27T07:13:23;-9.10;46.14
75838;SHT30;64480;52.040;113.502;2024-01-27T07:16:27;-9.05;46.84
75838;SHT30;64480;52.040;113.502;2024-01-27T07:19:31;-8.95;47.32
75838;SHT30;64480;52.040;113.502;2024-01-27T07:22:35;-9.03;48.33
75838;SHT30;64480;52.040;113.502;2024-01-27T07:25:39;-9.05;48.31
75838;SHT30;64480;52.040;113.502;2024-01-27T07:28:42;-9.10;49.12
75838;SHT30;64480;52.040;113.502;2024-01-27T07:31:46;-9.13;49.99
75838;SHT30;64480;52.040;113.502;2024-01-27T07:34:49;-9.22;50.49
75838;SHT30;64480;52.040;113.502;2024-01-27T07:37:52;-9.33;50.88
75838;SHT30;64480;52.040;113.502;2024-01-27T07:40:55;-9.51;51.42
75838;SHT30;64480;52.040;113.502;2024-01-27T07:44:07;-9.68;52.31
75838;SHT30;64480;52.040;113.502;2024-01-27T07:47:11;-9.85;52.99
75838;SHT30;64480;52.040;113.502;2024-01-27T07:50:19;-10.05;53.51
75838;SHT30;64480;52.040;113.502;2024-01-27T07:53:26;-10.25;54.11
75838;SHT30;64480;52.040;113.502;2024-01-27T07:56:35;-10.42;54.64
75838;SHT30;64480;52.040;113.502;2024-01-27T07:59:41;-10.52;55.03
75838;SHT30;64480;52.040;113.502;2024-01-27T08:02:44;-10.61;55.52
75838;SHT30;64480;52.040;113.502;2024-01-27T08:05:48;-10.56;55.84
75838;SHT30;64480;52.040;113.502;2024-01-27T08:08:52;-10.53;55.83
75838;SHT30;64480;52.040;113.502;2024-01-27T08:11:55;-10.48;55.39
75838;SHT30;64480;52.040;113.502;2024-01-27T08:15:03;-10.46;56.45
75838;SHT30;64480;52.040;113.502;2024-01-27T08:18:07;-10.48;56.69
75838;SHT30;64480;52.040;113.502;2024-01-27T08:21:10;-10.61;56.54
75838;SHT30;64480;52.040;113.502;2024-01-27T08:24:24;-10.72;56.40
75838;SHT30;64480;52.040;113.502;2024-01-27T08:27:27;-10.79;55.98
75838;SHT30;64480;52.040;113.502;2024-01-27T08:30:31;-10.87;56.16
75838;SHT30;64480;52.040;113.502;2024-01-27T08:33:35;-11.03;55.90
75838;SHT30;64480;52.040;113.502;2024-01-27T08:36:38;-11.04;56.29
75838;SHT30;64480;52.040;113.502;2024-01-27T08:39:41;-11.11;56.15
75838;SHT30;64480;52.040;113.502;2024-01-27T08:42:45;-11.17;55.90
75838;SHT30;64480;52.040;113.502;2024-01-27T08:45:48;-11.24;56.23
75838;SHT30;64480;52.040;113.502;2024-01-27T08:48:51;-11.27;57.06
75838;SHT30;64480;52.040;113.502;2024-01-27T08:51:55;-11.28;56.72
75838;SHT30;64480;52.040;113.502;2024-01-27T08:54:59;-11.28;56.66
75838;SHT30;64480;52.040;113.502;2024-01-27T08:58:05;-11.25;57.01
75838;SHT30;64480;52.040;113.502;2024-01-27T09:01:09;-11.30;56.98
75838;SHT30;64480;52.040;113.502;2024-01-27T09:04:15;-11.35;57.32
75838;SHT30;64480;52.040;113.502;2024-01-27T09:07:21;-11.44;56.64
75838;SHT30;64480;52.040;113.502;2024-01-27T09:10:24;-11.53;56.07
75838;SHT30;64480;52.040;113.502;2024-01-27T09:13:29;-11.63;56.57
75838;SHT30;64480;52.040;113.502;2024-01-27T09:16:33;-11.74;56.79
75838;SHT30;64480;52.040;113.502;2024-01-27T09:19:37;-11.79;57.80
75838;SHT30;64480;52.040;113.502;2024-01-27T09:22:41;-11.93;57.88
75838;SHT30;64480;52.040;113.502;2024-01-27T09:25:44;-12.13;58.89
75838;SHT30;64480;52.040;113.502;2024-01-27T09:28:49;-12.28;60.06
75838;SHT30;64480;52.040;113.502;2024-01-27T09:32:00;-12.44;60.84
75838;SHT30;64480;52.040;113.502;2024-01-27T09:35:04;-12.62;61.54
75838;SHT30;64480;52.040;113.502;2024-01-27T09:38:09;-12.74;62.18
75838;SHT30;64480;52.040;113.502;2024-01-27T09:41:16;-12.83;62.70
75838;SHT30;64480;52.040;113.502;2024-01-27T09:44:23;-12.91;63.33
75838;SHT30;64480;52.040;113.502;2024-01-27T09:47:28;-13.00;63.74
75838;SHT30;64480;52.040;113.502;2024-01-27T09:50:34;-12.98;64.12
75838;SHT30;64480;52.040;113.502;2024-01-27T09:53:37;-12.97;64.34
75838;SHT30;64480;52.040;113.502;2024-01-27T09:56:43;-12.95;64.78
75838;SHT30;64480;52.040;113.502;2024-01-27T09:59:49;-12.93;64.94
75838;SHT30;64480;52.040;113.502;2024-01-27T10:02:54;-12.93;64.83
75838;SHT30;64480;52.040;113.502;2024-01-27T10:06:00;-12.84;65.24
75838;SHT30;64480;52.040;113.502;2024-01-27T10:09:05;-12.80;64.84
75838;SHT30;64480;52.040;113.502;2024-01-27T10:12:10;-12.74;65.04
75838;SHT30;64480;52.040;113.502;2024-01-27T10:15:23;-12.74;64.46
75838;SHT30;64480;52.040;113.502;2024-01-27T10:18:27;-12.77;64.19
75838;SHT30;64480;52.040;113.502;2024-01-27T10:21:31;-12.74;63.94
75838;SHT30;64480;52.040;113.502;2024-01-27T10:24:35;-12.80;63.73
75838;SHT30;64480;52.040;113.502;2024-01-27T10:27:39;-12.80;63.69
75838;SHT30;64480;52.040;113.502;2024-01-27T10:30:45;-12.83;63.72
75838;SHT30;64480;52.040;113.502;2024-01-27T10:33:52;-12.84;63.87
75838;SHT30;64480;52.040;113.502;2024-01-27T10:36:59;-12.90;64.00
75838;SHT30;64480;52.040;113.502;2024-01-27T10:40:04;-13.08;63.96
75838;SHT30;64480;52.040;113.502;2024-01-27T10:43:10;-13.21;63.98
75838;SHT30;64480;52.040;113.502;2024-01-27T10:46:14;-13.35;64.33
75838;SHT30;64480;52.040;113.502;2024-01-27T10:49:20;-13.46;64.58
75838;SHT30;64480;52.040;113.502;2024-01-27T10:52:31;-13.54;64.85
75838;SHT30;64480;52.040;113.502;2024-01-27T10:55:35;-13.59;65.15
75838;SHT30;64480;52.040;113.502;2024-01-27T10:58:40;-13.64;65.62
75838;SHT30;64480;52.040;113.502;2024-01-27T11:01:49;-13.70;66.13
75838;SHT30;64480;52.040;113.502;2024-01-27T11:04:57;-13.75;66.20
75838;SHT30;64480;52.040;113.502;2024-01-27T11:08:02;-13.88;65.83
75838;SHT30;64480;52.040;113.502;2024-01-27T11:11:08;-13.95;66.14
75838;SHT30;64480;52.040;113.502;2024-01-27T11:14:13;-14.01;66.21
75838;SHT30;64480;52.040;113.502;2024-01-27T11:17:20;-14.04;66.37
75838;SHT30;64480;52.040;113.502;2024-01-27T11:20:30;-14.06;66.42
75838;SHT30;64480;52.040;113.502;2024-01-27T11:23:35;-14.06;66.66
75838;SHT30;64480;52.040;113.502;2024-01-27T11:26:39;-14.09;67.00
75838;SHT30;64480;52.040;113.502;2024-01-27T11:29:49;-14.18;66.89
75838;SHT30;64480;52.040;113.502;2024-01-27T11:33:00;-14.23;67.23
75838;SHT30;64480;52.040;113.502;2024-01-27T11:36:14;-14.30;67.64
75838;SHT30;64480;52.040;113.502;2024-01-27T11:39:27;-14.34;67.79
75838;SHT30;64480;52.040;113.502;2024-01-27T11:42:34;-14.49;67.82
75838;SHT30;64480;52.040;113.502;2024-01-27T11:45:38;-14.63;67.90
75838;SHT30;64480;52.040;113.502;2024-01-27T11:48:42;-14.88;67.59
75838;SHT30;64480;52.040;113.502;2024-01-27T11:51:47;-15.02;67.90
75838;SHT30;64480;52.040;113.502;2024-01-27T11:54:59;-15.13;68.26
75838;SHT30;64480;52.040;113.502;2024-01-27T11:58:12;-15.16;68.47
75838;SHT30;64480;52.040;113.502;2024-01-27T12:01:17;-15.16;68.85
75838;SHT30;64480;52.040;113.502;2024-01-27T12:04:24;-15.12;68.89
75838;SHT30;64480;52.040;113.502;2024-01-27T12:07:31;-15.07;68.96
75838;SHT30;64480;52.040;113.502;2024-01-27T12:10:36;-15.05;68.82
75838;SHT30;64480;52.040;113.502;2024-01-27T12:13:43;-14.98;69.05
75838;SHT30;64480;52.040;113.502;2024-01-27T12:16:46;-14.99;69.10
75838;SHT30;64480;52.040;113.502;2024-01-27T12:19:53;-14.91;69.68
75838;SHT30;64480;52.040;113.502;2024-01-27T12:23:07;-14.84;69.90
75838;SHT30;64480;52.040;113.502;2024-01-27T12:26:17;-14.74;71.22
75838;SHT30;64480;52.040;113.502;2024-01-27T12:29:23;-14.68;71.94
75838;SHT30;64480;52.040;113.502;2024-01-27T12:32:27;-14.67;72.68
75838;SHT30;64480;52.040;113.502;2024-01-27T12:35:30;-14.74;70.20
75838;SHT30;64480;52.040;113.502;2024-01-27T12:38:38;-14.85;69.12
75838;SHT30;64480;52.040;113.502;2024-01-27T12:41:45;-14.88;68.88
75838;SHT30;64480;52.040;113.502;2024-01-27T12:44:50;-14.95;68.68
75838;SHT30;64480;52.040;113.502;2024-01-27T12:47:54;-15.05;68.37
75838;SHT30;64480;52.040;113.502;2024-01-27T12:50:59;-15.12;68.09
75838;SHT30;64480;52.040;113.502;2024-01-27T12:54:06;-15.27;67.90
75838;SHT30;64480;52.040;113.502;2024-01-27T12:57:10;-15.48;67.87
75838;SHT30;64480;52.040;113.502;2024-01-27T13:00:14;-15.54;68.59
75838;SHT30;64480;52.040;113.502;2024-01-27T13:03:17;-15.55;69.12
75838;SHT30;64480;52.040;113.502;2024-01-27T13:06:26;-15.59;69.40
75838;SHT30;64480;52.040;113.502;2024-01-27T13:09:30;-15.57;69.72
75838;SHT30;64480;52.040;113.502;2024-01-27T13:12:34;-15.48;69.78
75838;SHT30;64480;52.040;113.502;2024-01-27T13:15:37;-15.41;69.65
75838;SHT30;64480;52.040;113.502;2024-01-27T13:18:41;-15.34;69.35
75838;SHT30;64480;52.040;113.502;2024-01-27T13:21:49;-15.30;68.73
75838;SHT30;64480;52.040;113.502;2024-01-27T13:24:54;-15.33;67.92
75838;SHT30;64480;52.040;113.502;2024-01-27T13:27:57;-15.43;67.13
75838;SHT30;64480;52.040;113.502;2024-01-27T13:31:02;-15.53;67.18
75838;SHT30;64480;52.040;113.502;2024-01-27T13:34:06;-15.61;67.45
75838;SHT30;64480;52.040;113.502;2024-01-27T13:37:10;-15.72;67.53
75838;SHT30;64480;52.040;113.502;2024-01-27T13:40:17;-16.03;66.94
75838;SHT30;64480;52.040;113.502;2024-01-27T13:43:25;-16.44;66.76
75838;SHT30;64480;52.040;113.502;2024-01-27T13:46:31;-16.59;67.81
75838;SHT30;64480;52.040;113.502;2024-01-27T13:49:35;-16.75;68.45
75838;SHT30;64480;52.040;113.502;2024-01-27T13:52:41;-16.87;68.89
75838;SHT30;64480;52.040;113.502;2024-01-27T13:55:50;-16.93;69.23
75838;SHT30;64480;52.040;113.502;2024-01-27T13:58:56;-17.03;69.36
75838;SHT30;64480;52.040;113.502;2024-01-27T14:01:59;-17.01;69.83
75838;SHT30;64480;52.040;113.502;2024-01-27T14:05:02;-17.13;69.66
75838;SHT30;64480;52.040;113.502;2024-01-27T14:08:07;-17.41;69.38
75838;SHT30;64480;52.040;113.502;2024-01-27T14:11:14;-17.48;70.10
75838;SHT30;64480;52.040;113.502;2024-01-27T14:14:18;-17.56;70.39
75838;SHT30;64480;52.040;113.502;2024-01-27T14:17:24;-17.60;70.80
75838;SHT30;64480;52.040;113.502;2024-01-27T14:20:28;-17.58;71.02
75838;SHT30;64480;52.040;113.502;2024-01-27T14:23:36;-17.55;71.16
75838;SHT30;64480;52.040;113.502;2024-01-27T14:26:40;-17.58;70.59
75838;SHT30;64480;52.040;113.502;2024-01-27T14:29:43;-17.60;69.88
75838;SHT30;64480;52.040;113.502;2024-01-27T14:32:52;-17.67;69.27
75838;SHT30;64480;52.040;113.502;2024-01-27T14:35:57;-17.74;69.32
75838;SHT30;64480;52.040;113.502;2024-01-27T14:39:11;-17.80;69.59
75838;SHT30;64480;52.040;113.502;2024-01-27T14:42:18;-17.97;69.19
75838;SHT30;64480;52.040;113.502;2024-01-27T14:45:24;-17.94;69.75
75838;SHT30;64480;52.040;113.502;2024-01-27T14:48:28;-17.93;69.85
75838;SHT30;64480;52.040;113.502;2024-01-27T14:51:34;-17.90;69.68
75838;SHT30;64480;52.040;113.502;2024-01-27T14:54:43;-17.94;69.38
75838;SHT30;64480;52.040;113.502;2024-01-27T14:57:47;-18.04;69.18
75838;SHT30;64480;52.040;113.502;2024-01-27T15:00:51;-18.12;69.26
75838;SHT30;64480;52.040;113.502;2024-01-27T15:04:04;-18.18;69.47
75838;SHT30;64480;52.040;113.502;2024-01-27T15:07:16;-18.21;69.68
75838;SHT30;64480;52.040;113.502;2024-01-27T15:10:26;-18.22;69.61
75838;SHT30;64480;52.040;113.502;2024-01-27T15:13:36;-18.22;69.54
75838;SHT30;64480;52.040;113.502;2024-01-27T15:16:47;-18.22;69.38
75838;SHT30;64480;52.040;113.502;2024-01-27T15:20:07;-18.21;69.41
75838;SHT30;64480;52.040;113.502;2024-01-27T15:23:23;-18.14;69.40
75838;SHT30;64480;52.040;113.502;2024-01-27T15:26:45;-18.14;69.03
75838;SHT30;64480;52.040;113.502;2024-01-27T15:29:48;-18.09;68.92
75838;SHT30;64480;52.040;113.502;2024-01-27T15:32:54;-18.08;68.59
75838;SHT30;64480;52.040;113.502;2024-01-27T15:35:57;-18.12;68.04
75838;SHT30;64480;52.040;113.502;2024-01-27T15:39:01;-18.14;67.95
75838;SHT30;64480;52.040;113.502;2024-01-27T15:42:04;-18.14;68.10
75838;SHT30;64480;52.040;113.502;2024-01-27T15:45:08;-18.15;67.85
75838;SHT30;64480;52.040;113.502;2024-01-27T15:48:13;-18.14;67.64
75838;SHT30;64480;52.040;113.502;2024-01-27T15:51:17;-18.19;67.38
75838;SHT30;64480;52.040;113.502;2024-01-27T15:54:21;-18.36;66.98
75838;SHT30;64480;52.040;113.502;2024-01-27T15:57:27;-18.53;67.13
75838;SHT30;64480;52.040;113.502;2024-01-27T16:00:31;-18.54;67.76
75838;SHT30;64480;52.040;113.502;2024-01-27T16:03:36;-18.53;68.09
75838;SHT30;64480;52.040;113.502;2024-01-27T16:06:41;-18.53;67.97
75838;SHT30;64480;52.040;113.502;2024-01-27T16:09:47;-18.53;67.75
75838;SHT30;64480;52.040;113.502;2024-01-27T16:12:50;-18.56;67.42
75838;SHT30;64480;52.040;113.502;2024-01-27T16:15:53;-18.54;67.35
75838;SHT30;64480;52.040;113.502;2024-01-27T16:18:56;-18.61;67.00
75838;SHT30;64480;52.040;113.502;2024-01-27T16:22:03;-18.64;67.20
75838;SHT30;64480;52.040;113.502;2024-01-27T16:25:08;-18.65;66.94
75838;SHT30;64480;52.040;113.502;2024-01-27T16:28:12;-18.71;66.73
75838;SHT30;64480;52.040;113.502;2024-01-27T16:31:15;-18.70;66.94
75838;SHT30;64480;52.040;113.502;2024-01-27T16:34:20;-18.71;67.14
75838;SHT30;64480;52.040;113.502;2024-01-27T16:37:26;-18.70;67.06
75838;SHT30;64480;52.040;113.502;2024-01-27T16:40:30;-18.72;67.01
75838;SHT30;64480;52.040;113.502;2024-01-27T16:43:33;-18.68;66.72
75838;SHT30;64480;52.040;113.502;2024-01-27T16:46:36;-18.67;67.10
75838;SHT30;64480;52.040;113.502;2024-01-27T16:49:40;-18.78;66.96
75838;SHT30;64480;52.040;113.502;2024-01-27T16:52:44;-18.44;70.45
75838;SHT30;64480;52.040;113.502;2024-01-27T16:55:48;-18.08;72.95
75838;SHT30;64480;52.040;113.502;2024-01-27T16:58:53;-17.90;72.47
75838;SHT30;64480;52.040;113.502;2024-01-27T17:01:57;-17.69;72.67
75838;SHT30;64480;52.040;113.502;2024-01-27T17:05:03;-17.73;71.25
75838;SHT30;64480;52.040;113.502;2024-01-27T17:08:08;-17.93;69.55
75838;SHT30;64480;52.040;113.502;2024-01-27T17:11:15;-17.84;70.59
75838;SHT30;64480;52.040;113.502;2024-01-27T17:14:18;-17.95;69.39
75838;SHT30;64480;52.040;113.502;2024-01-27T17:17:22;-18.04;68.93
75838;SHT30;64480;52.040;113.502;2024-01-27T17:20:28;-18.08;69.34
75838;SHT30;64480;52.040;113.502;2024-01-27T17:23:32;-18.12;68.59
75838;SHT30;64480;52.040;113.502;2024-01-27T17:26:36;-18.18;68.75
75838;SHT30;64480;52.040;113.502;2024-01-27T17:29:49;-18.16;69.19
75838;SHT30;64480;52.040;113.502;2024-01-27T17:32:53;-18.15;69.17
75838;SHT30;64480;52.040;113.502;2024-01-27T17:35:57;-18.22;68.80
75838;SHT30;64480;52.040;113.502;2024-01-27T17:39:01;-18.00;70.45
75838;SHT30;64480;52.040;113.502;2024-01-27T17:42:07;-18.05;69.65
75838;SHT30;64480;52.040;113.502;2024-01-27T17:45:13;-18.12;68.65
75838;SHT30;64480;52.040;113.502;2024-01-27T17:48:17;-17.98;69.97
75838;SHT30;64480;52.040;113.502;2024-01-27T17:51:21;-17.76;71.03
75838;SHT30;64480;52.040;113.502;2024-01-27T17:54:27;-17.66;71.09
75838;SHT30;64480;52.040;113.502;2024-01-27T17:57:39;-17.74;69.78
75838;SHT30;64480;52.040;113.502;2024-01-27T18:00:55;-17.63;70.32
75838;SHT30;64480;52.040;113.502;2024-01-27T18:04:49;-17.53;70.56
75838;SHT30;64480;52.040;113.502;2024-01-27T18:07:53;-17.46;70.68
75838;SHT30;64480;52.040;113.502;2024-01-27T18:10:57;-17.35;70.75
75838;SHT30;64480;52.040;113.502;2024-01-27T18:14:00;-17.32;70.19
75838;SHT30;64480;52.040;113.502;2024-01-27T18:17:04;-17.34;69.69
75838;SHT30;64480;52.040;113.502;2024-01-27T18:20:08;-17.28;69.74
75838;SHT30;64480;52.040;113.502;2024-01-27T18:23:13;-17.31;69.48
75838;SHT30;64480;52.040;113.502;2024-01-27T18:26:17;-17.31;69.04
75838;SHT30;64480;52.040;113.502;2024-01-27T18:29:30;-17.34;69.08
75838;SHT30;64480;52.040;113.502;2024-01-27T18:32:33;-17.32;69.02
75838;SHT30;64480;52.040;113.502;2024-01-27T18:35:36;-17.32;68.90
75838;SHT30;64480;52.040;113.502;2024-01-27T18:38:40;-17.31;68.84